Coqueiro Baixo, Brazil
Current Conditions -  °F | °C
As of 2:00 PM on Thursday 27 Nov 2014 (Local Time) from SBPF Reporting Station
Broken Clouds Broken Clouds  
Wind Chill: 81°   Ceiling: 5000
Heat Index: 82°   Visibility: 6mi
Dew Point: 64°   Wind: 9mph
Humidity: 58%   Direction: 190°S
Pressure: 29.97"   Gusts: NA
Location:  29.18°S, 52.09°W
Report Text: SBPF 271600Z 19008KT 9999 FEW035 BKN050 27/18 Q1015
Loading
Personal Weather Stations






























Interactive Weather Map New forecast layout! Learn more

10-Day Weather Forecast

Advertisements
Track Severe Weather on mobile